sensor_id;sensor_type;location;lat;lon;timestamp;temperature;humidity
71396;DHT22;59888;55.814;37.132;2022-09-01T00:02:23;11.30;64.92
71396;DHT22;59888;55.814;37.132;2022-09-01T00:04:52;11.38;62.66
71396;DHT22;59888;55.814;37.132;2022-09-01T00:07:24;11.40;63.51
71396;DHT22;59888;55.814;37.132;2022-09-01T00:09:51;11.41;64.61
71396;DHT22;59888;55.814;37.132;2022-09-01T00:12:17;11.39;65.24
71396;DHT22;59888;55.814;37.132;2022-09-01T00:14:43;11.40;64.14
71396;DHT22;59888;55.814;37.132;2022-09-01T00:17:11;11.34;64.72
71396;DHT22;59888;55.814;37.132;2022-09-01T00:19:37;11.38;64.59
71396;DHT22;59888;55.814;37.132;2022-09-01T00:22:05;11.40;63.66
71396;DHT22;59888;55.814;37.132;2022-09-01T00:24:32;11.44;62.86
71396;DHT22;59888;55.814;37.132;2022-09-01T00:26:58;11.42;62.89
71396;DHT22;59888;55.814;37.132;2022-09-01T00:29:24;11.40;63.60
71396;DHT22;59888;55.814;37.132;2022-09-01T00:31:50;11.37;63.69
71396;DHT22;59888;55.814;37.132;2022-09-01T00:34:17;11.29;64.38
71396;DHT22;59888;55.814;37.132;2022-09-01T00:36:43;11.25;65.46
71396;DHT22;59888;55.814;37.132;2022-09-01T00:39:09;11.18;65.88
71396;DHT22;59888;55.814;37.132;2022-09-01T00:41:38;11.13;65.62
71396;DHT22;59888;55.814;37.132;2022-09-01T00:44:07;11.08;64.33
71396;DHT22;59888;55.814;37.132;2022-09-01T00:46:35;11.07;64.37
71396;DHT22;59888;55.814;37.132;2022-09-01T00:49:06;10.98;66.54
71396;DHT22;59888;55.814;37.132;2022-09-01T00:51:34;10.89;65.95
71396;DHT22;59888;55.814;37.132;2022-09-01T00:54:04;10.87;65.67
71396;DHT22;59888;55.814;37.132;2022-09-01T00:56:31;10.85;65.33
71396;DHT22;59888;55.814;37.132;2022-09-01T00:58:58;10.82;64.41
71396;DHT22;59888;55.814;37.132;2022-09-01T01:01:25;10.79;65.31
71396;DHT22;59888;55.814;37.132;2022-09-01T01:03:51;10.75;65.18
71396;DHT22;59888;55.814;37.132;2022-09-01T01:06:18;10.72;64.94
71396;DHT22;59888;55.814;37.132;2022-09-01T01:08:48;10.71;65.03
71396;DHT22;59888;55.814;37.132;2022-09-01T01:11:21;10.70;65.46
71396;DHT22;59888;55.814;37.132;2022-09-01T01:13:50;10.68;65.27
71396;DHT22;59888;55.814;37.132;2022-09-01T01:16:17;10.67;64.51
71396;DHT22;59888;55.814;37.132;2022-09-01T01:18:43;10.64;64.38
71396;DHT22;59888;55.814;37.132;2022-09-01T01:21:14;10.62;65.11
71396;DHT22;59888;55.814;37.132;2022-09-01T01:24:17;10.57;64.40
71396;DHT22;59888;55.814;37.132;2022-09-01T01:26:45;10.56;65.04
71396;DHT22;59888;55.814;37.132;2022-09-01T01:29:13;10.53;64.73
71396;DHT22;59888;55.814;37.132;2022-09-01T01:31:40;10.51;64.88
71396;DHT22;59888;55.814;37.132;2022-09-01T01:34:06;10.48;64.68
71396;DHT22;59888;55.814;37.132;2022-09-01T01:36:35;10.43;65.40
71396;DHT22;59888;55.814;37.132;2022-09-01T06:24:43;12.08;58.50
71396;DHT22;59888;55.814;37.132;2022-09-01T06:27:09;12.08;58.54
71396;DHT22;59888;55.814;37.132;2022-09-01T06:29:36;12.20;57.55
71396;DHT22;59888;55.814;37.132;2022-09-01T06:32:08;12.19;57.30
71396;DHT22;59888;55.814;37.132;2022-09-01T06:34:41;12.29;57.13
71396;DHT22;59888;55.814;37.132;2022-09-01T06:37:08;12.44;56.68
71396;DHT22;59888;55.814;37.132;2022-09-01T06:39:35;12.45;56.40
71396;DHT22;59888;55.814;37.132;2022-09-01T06:42:01;12.53;55.91
71396;DHT22;59888;55.814;37.132;2022-09-01T06:44:39;12.55;55.53
71396;DHT22;59888;55.814;37.132;2022-09-01T06:47:07;12.62;55.10
71396;DHT22;59888;55.814;37.132;2022-09-01T06:49:34;12.60;55.16
71396;DHT22;59888;55.814;37.132;2022-09-01T06:52:07;12.53;55.04
71396;DHT22;59888;55.814;37.132;2022-09-01T06:54:33;12.56;55.12
71396;DHT22;59888;55.814;37.132;2022-09-01T06:57:01;12.58;52.48
71396;DHT22;59888;55.814;37.132;2022-09-01T06:59:29;12.55;53.84
71396;DHT22;59888;55.814;37.132;2022-09-01T07:02:01;12.58;54.16
71396;DHT22;59888;55.814;37.132;2022-09-01T07:04:46;12.75;54.39
71396;DHT22;59888;55.814;37.132;2022-09-01T07:07:13;12.97;52.78
71396;DHT22;59888;55.814;37.132;2022-09-01T07:10:05;12.85;52.69
71396;DHT22;59888;55.814;37.132;2022-09-01T07:12:40;12.93;52.89
71396;DHT22;59888;55.814;37.132;2022-09-01T07:15:11;13.02;51.88
71396;DHT22;59888;55.814;37.132;2022-09-01T07:17:49;13.05;50.85
71396;DHT22;59888;55.814;37.132;2022-09-01T07:20:20;13.04;50.63
71396;DHT22;59888;55.814;37.132;2022-09-01T07:22:47;12.97;51.56
71396;DHT22;59888;55.814;37.132;2022-09-01T07:25:14;12.99;50.83
71396;DHT22;59888;55.814;37.132;2022-09-01T07:27:57;13.02;49.53
71396;DHT22;59888;55.814;37.132;2022-09-01T07:30:25;12.85;49.31
71396;DHT22;59888;55.814;37.132;2022-09-01T07:32:51;12.89;49.47
71396;DHT22;59888;55.814;37.132;2022-09-01T07:35:20;12.94;50.63
71396;DHT22;59888;55.814;37.132;2022-09-01T07:37:48;12.95;49.43
71396;DHT22;59888;55.814;37.132;2022-09-01T07:40:17;12.79;49.01
71396;DHT22;59888;55.814;37.132;2022-09-01T07:42:59;12.74;50.52
71396;DHT22;59888;55.814;37.132;2022-09-01T07:45:31;12.70;50.98
71396;DHT22;59888;55.814;37.132;2022-09-01T07:48:02;12.73;50.54
71396;DHT22;59888;55.814;37.132;2022-09-01T07:50:41;12.66;50.34
71396;DHT22;59888;55.814;37.132;2022-09-01T07:53:14;12.69;50.47
71396;DHT22;59888;55.814;37.132;2022-09-01T07:56:16;12.81;50.60
71396;DHT22;59888;55.814;37.132;2022-09-01T07:59:00;12.93;50.11
71396;DHT22;59888;55.814;37.132;2022-09-01T08:01:27;13.07;50.61
71396;DHT22;59888;55.814;37.132;2022-09-01T08:03:58;13.19;50.47
71396;DHT22;59888;55.814;37.132;2022-09-01T08:06:26;13.21;49.37
71396;DHT22;59888;55.814;37.132;2022-09-01T08:08:54;13.32;50.14
71396;DHT22;59888;55.814;37.132;2022-09-01T08:11:23;13.38;49.38
71396;DHT22;59888;55.814;37.132;2022-09-01T08:13:52;13.46;49.80
71396;DHT22;59888;55.814;37.132;2022-09-01T08:16:19;13.62;49.82
71396;DHT22;59888;55.814;37.132;2022-09-01T08:18:48;13.63;49.76
71396;DHT22;59888;55.814;37.132;2022-09-01T08:21:23;13.61;49.28
71396;DHT22;59888;55.814;37.132;2022-09-01T08:24:15;13.50;49.12
71396;DHT22;59888;55.814;37.132;2022-09-01T08:26:41;13.49;49.09
71396;DHT22;59888;55.814;37.132;2022-09-01T08:29:09;13.44;49.37
71396;DHT22;59888;55.814;37.132;2022-09-01T08:31:40;13.58;49.58
71396;DHT22;59888;55.814;37.132;2022-09-01T08:34:06;13.71;49.90
71396;DHT22;59888;55.814;37.132;2022-09-01T08:36:32;13.89;48.92
71396;DHT22;59888;55.814;37.132;2022-09-01T08:38:59;13.81;47.02
71396;DHT22;59888;55.814;37.132;2022-09-01T08:44:39;13.59;48.52
71396;DHT22;59888;55.814;37.132;2022-09-01T08:47:11;13.43;47.15
71396;DHT22;59888;55.814;37.132;2022-09-01T08:49:40;13.55;48.08
71396;DHT22;59888;55.814;37.132;2022-09-01T08:52:33;13.62;48.05
71396;DHT22;59888;55.814;37.132;2022-09-01T08:55:20;13.70;48.20
71396;DHT22;59888;55.814;37.132;2022-09-01T08:57:51;13.76;48.40
71396;DHT22;59888;55.814;37.132;2022-09-01T09:00:23;13.96;46.92
71396;DHT22;59888;55.814;37.132;2022-09-01T09:03:12;13.85;47.18
71396;DHT22;59888;55.814;37.132;2022-09-01T09:08:42;13.77;48.35
71396;DHT22;59888;55.814;37.132;2022-09-01T09:14:03;13.63;47.80
71396;DHT22;59888;55.814;37.132;2022-09-01T09:16:40;13.52;48.57
71396;DHT22;59888;55.814;37.132;2022-09-01T09:21:45;13.15;50.65
71396;DHT22;59888;55.814;37.132;2022-09-01T09:24:35;13.08;50.94
71396;DHT22;59888;55.814;37.132;2022-09-01T09:27:25;13.20;50.31
71396;DHT22;59888;55.814;37.132;2022-09-01T09:29:54;13.29;50.40
71396;DHT22;59888;55.814;37.132;2022-09-01T09:32:22;13.43;50.48
71396;DHT22;59888;55.814;37.132;2022-09-01T09:34:49;13.65;50.19
71396;DHT22;59888;55.814;37.132;2022-09-01T09:37:24;14.11;49.46
71396;DHT22;59888;55.814;37.132;2022-09-01T09:40:07;14.40;48.60
71396;DHT22;59888;55.814;37.132;2022-09-01T09:42:38;14.52;46.31
71396;DHT22;59888;55.814;37.132;2022-09-01T09:45:28;14.47;47.15
71396;DHT22;59888;55.814;37.132;2022-09-01T09:47:56;14.37;47.50
71396;DHT22;59888;55.814;37.132;2022-09-01T09:50:30;14.17;46.34
71396;DHT22;59888;55.814;37.132;2022-09-01T09:58:21;13.89;46.53
71396;DHT22;59888;55.814;37.132;2022-09-01T10:01:43;13.76;48.05
71396;DHT22;59888;55.814;37.132;2022-09-01T10:03:57;13.95;48.01
71396;DHT22;59888;55.814;37.132;2022-09-01T10:06:36;13.96;47.65
71396;DHT22;59888;55.814;37.132;2022-09-01T10:09:08;14.03;48.16
71396;DHT22;59888;55.814;37.132;2022-09-01T10:11:42;14.10;48.07
71396;DHT22;59888;55.814;37.132;2022-09-01T10:16:40;14.07;47.11
71396;DHT22;59888;55.814;37.132;2022-09-01T10:19:11;13.97;46.99
71396;DHT22;59888;55.814;37.132;2022-09-01T10:21:40;14.07;46.43
71396;DHT22;59888;55.814;37.132;2022-09-01T10:26:45;14.29;45.64
71396;DHT22;59888;55.814;37.132;2022-09-01T10:29:36;14.30;46.14
71396;DHT22;59888;55.814;37.132;2022-09-01T10:32:10;14.28;46.06
71396;DHT22;59888;55.814;37.132;2022-09-01T10:34:38;14.05;46.33
71396;DHT22;59888;55.814;37.132;2022-09-01T10:37:06;14.00;46.70
71396;DHT22;59888;55.814;37.132;2022-09-01T10:39:32;13.98;46.54
71396;DHT22;59888;55.814;37.132;2022-09-01T10:41:59;14.10;47.28
71396;DHT22;59888;55.814;37.132;2022-09-01T10:44:34;14.20;47.27
71396;DHT22;59888;55.814;37.132;2022-09-01T10:51:57;14.57;45.99
71396;DHT22;59888;55.814;37.132;2022-09-01T11:05:59;14.86;44.27
71396;DHT22;59888;55.814;37.132;2022-09-01T11:16:27;14.66;45.64
71396;DHT22;59888;55.814;37.132;2022-09-01T11:18:55;14.53;45.35
71396;DHT22;59888;55.814;37.132;2022-09-01T11:21:40;14.59;45.28
71396;DHT22;59888;55.814;37.132;2022-09-01T11:27:11;14.81;44.52
71396;DHT22;59888;55.814;37.132;2022-09-01T11:29:52;14.85;45.35
71396;DHT22;59888;55.814;37.132;2022-09-01T11:32:23;14.71;45.83
71396;DHT22;59888;55.814;37.132;2022-09-01T11:34:50;14.68;45.54
71396;DHT22;59888;55.814;37.132;2022-09-01T11:37:21;14.75;45.90
71396;DHT22;59888;55.814;37.132;2022-09-01T11:39:53;14.81;45.90
71396;DHT22;59888;55.814;37.132;2022-09-01T11:42:24;15.12;45.70
71396;DHT22;59888;55.814;37.132;2022-09-01T11:47:44;15.37;42.53
71396;DHT22;59888;55.814;37.132;2022-09-01T11:50:20;15.60;41.59
71396;DHT22;59888;55.814;37.132;2022-09-01T11:53:07;15.61;42.76
71396;DHT22;59888;55.814;37.132;2022-09-01T11:55:40;15.61;41.51
71396;DHT22;59888;55.814;37.132;2022-09-01T11:58:11;15.76;41.59
71396;DHT22;59888;55.814;37.132;2022-09-01T12:00:43;15.88;42.17
71396;DHT22;59888;55.814;37.132;2022-09-01T12:03:22;15.91;39.61
71396;DHT22;59888;55.814;37.132;2022-09-01T12:05:58;15.84;41.33
71396;DHT22;59888;55.814;37.132;2022-09-01T12:08:28;15.90;40.36
71396;DHT22;59888;55.814;37.132;2022-09-01T12:11:07;15.74;38.33
71396;DHT22;59888;55.814;37.132;2022-09-01T12:13:35;15.77;38.81
71396;DHT22;59888;55.814;37.132;2022-09-01T12:16:04;16.16;40.36
71396;DHT22;59888;55.814;37.132;2022-09-01T12:18:56;16.39;39.12
71396;DHT22;59888;55.814;37.132;2022-09-01T12:21:37;16.43;38.68
71396;DHT22;59888;55.814;37.132;2022-09-01T12:24:16;16.12;37.71
71396;DHT22;59888;55.814;37.132;2022-09-01T12:26:44;16.01;38.92
71396;DHT22;59888;55.814;37.132;2022-09-01T12:29:11;15.93;39.43
71396;DHT22;59888;55.814;37.132;2022-09-01T12:31:43;16.00;37.30
71396;DHT22;59888;55.814;37.132;2022-09-01T12:34:46;16.15;39.39
71396;DHT22;59888;55.814;37.132;2022-09-01T12:39:49;16.58;36.50
71396;DHT22;59888;55.814;37.132;2022-09-01T12:45:08;16.94;37.10
71396;DHT22;59888;55.814;37.132;2022-09-01T12:52:31;21.60;32.25
71396;DHT22;59888;55.814;37.132;2022-09-01T12:57:28;25.04;31.27
71396;DHT22;59888;55.814;37.132;2022-09-01T13:02:36;27.38;26.28
71396;DHT22;59888;55.814;37.132;2022-09-01T13:05:24;27.57;25.20
71396;DHT22;59888;55.814;37.132;2022-09-01T13:08:02;24.24;26.18
71396;DHT22;59888;55.814;37.132;2022-09-01T13:10:37;22.83;30.06
71396;DHT22;59888;55.814;37.132;2022-09-01T13:13:05;22.06;27.15
71396;DHT22;59888;55.814;37.132;2022-09-01T13:15:31;21.90;29.70
71396;DHT22;59888;55.814;37.132;2022-09-01T13:17:58;23.11;28.19
71396;DHT22;59888;55.814;37.132;2022-09-01T13:20:24;25.10;26.38
71396;DHT22;59888;55.814;37.132;2022-09-01T13:22:50;26.89;25.68
71396;DHT22;59888;55.814;37.132;2022-09-01T13:25:18;27.89;25.48
71396;DHT22;59888;55.814;37.132;2022-09-01T13:27:45;29.60;26.16
71396;DHT22;59888;55.814;37.132;2022-09-01T13:30:20;31.07;23.68
71396;DHT22;59888;55.814;37.132;2022-09-01T13:32:47;29.39;21.13
71396;DHT22;59888;55.814;37.132;2022-09-01T13:35:15;26.83;26.84
71396;DHT22;59888;55.814;37.132;2022-09-01T13:37:42;24.76;27.67
71396;DHT22;59888;55.814;37.132;2022-09-01T13:40:08;23.34;27.17
71396;DHT22;59888;55.814;37.132;2022-09-01T13:42:41;22.08;30.51
71396;DHT22;59888;55.814;37.132;2022-09-01T13:45:08;21.36;32.06
71396;DHT22;59888;55.814;37.132;2022-09-01T13:47:41;20.48;33.40
71396;DHT22;59888;55.814;37.132;2022-09-01T13:50:09;19.39;34.51
71396;DHT22;59888;55.814;37.132;2022-09-01T13:52:37;18.42;39.75
71396;DHT22;59888;55.814;37.132;2022-09-01T13:55:04;17.54;42.13
71396;DHT22;59888;55.814;37.132;2022-09-01T13:57:31;17.07;43.05
71396;DHT22;59888;55.814;37.132;2022-09-01T13:59:58;17.50;41.42
71396;DHT22;59888;55.814;37.132;2022-09-01T14:02:24;18.95;40.49
71396;DHT22;59888;55.814;37.132;2022-09-01T14:04:51;21.45;37.61
71396;DHT22;59888;55.814;37.132;2022-09-01T14:07:17;23.27;34.26
71396;DHT22;59888;55.814;37.132;2022-09-01T14:09:44;24.46;33.31
71396;DHT22;59888;55.814;37.132;2022-09-01T14:12:10;25.49;31.51
71396;DHT22;59888;55.814;37.132;2022-09-01T14:14:36;25.58;29.39
71396;DHT22;59888;55.814;37.132;2022-09-01T14:17:02;25.89;31.16
71396;DHT22;59888;55.814;37.132;2022-09-01T14:19:29;25.40;29.06
71396;DHT22;59888;55.814;37.132;2022-09-01T14:21:55;23.36;32.29
71396;DHT22;59888;55.814;37.132;2022-09-01T14:24:21;22.62;33.68
71396;DHT22;59888;55.814;37.132;2022-09-01T14:26:47;23.66;32.29
71396;DHT22;59888;55.814;37.132;2022-09-01T14:29:15;24.50;30.10
71396;DHT22;59888;55.814;37.132;2022-09-01T14:31:41;24.76;31.43
71396;DHT22;59888;55.814;37.132;2022-09-01T14:34:10;23.76;32.16
71396;DHT22;59888;55.814;37.132;2022-09-01T14:36:37;24.47;31.12
71396;DHT22;59888;55.814;37.132;2022-09-01T14:39:03;25.27;29.08
71396;DHT22;59888;55.814;37.132;2022-09-01T14:41:30;25.61;30.37
71396;DHT22;59888;55.814;37.132;2022-09-01T14:43:56;26.09;25.17
71396;DHT22;59888;55.814;37.132;2022-09-01T14:46:29;26.18;26.77
71396;DHT22;59888;55.814;37.132;2022-09-01T14:48:55;25.88;29.00
71396;DHT22;59888;55.814;37.132;2022-09-01T14:51:25;24.76;28.98
71396;DHT22;59888;55.814;37.132;2022-09-01T14:53:53;23.23;30.86
71396;DHT22;59888;55.814;37.132;2022-09-01T14:56:20;21.67;32.20
71396;DHT22;59888;55.814;37.132;2022-09-01T14:58:46;20.37;34.09
71396;DHT22;59888;55.814;37.132;2022-09-01T15:01:15;19.51;35.58
71396;DHT22;59888;55.814;37.132;2022-09-01T15:03:41;18.81;36.63
71396;DHT22;59888;55.814;37.132;2022-09-01T15:06:11;19.00;37.56
71396;DHT22;59888;55.814;37.132;2022-09-01T15:08:37;20.09;36.14
71396;DHT22;59888;55.814;37.132;2022-09-01T15:11:10;21.20;35.57
71396;DHT22;59888;55.814;37.132;2022-09-01T15:13:37;21.70;31.07
71396;DHT22;59888;55.814;37.132;2022-09-01T15:16:05;22.11;31.22
71396;DHT22;59888;55.814;37.132;2022-09-01T15:18:36;22.46;32.15
71396;DHT22;59888;55.814;37.132;2022-09-01T15:21:04;22.29;31.43
71396;DHT22;59888;55.814;37.132;2022-09-01T15:23:30;22.25;30.96
71396;DHT22;59888;55.814;37.132;2022-09-01T15:25:56;21.89;31.70
71396;DHT22;59888;55.814;37.132;2022-09-01T15:28:23;22.10;31.14
71396;DHT22;59888;55.814;37.132;2022-09-01T15:30:50;21.55;30.01
71396;DHT22;59888;55.814;37.132;2022-09-01T15:33:17;20.68;31.35
71396;DHT22;59888;55.814;37.132;2022-09-01T15:35:44;19.50;33.75
71396;DHT22;59888;55.814;37.132;2022-09-01T15:38:10;18.54;35.40
71396;DHT22;59888;55.814;37.132;2022-09-01T15:40:40;17.79;37.11
71396;DHT22;59888;55.814;37.132;2022-09-01T15:43:07;17.14;37.83
71396;DHT22;59888;55.814;37.132;2022-09-01T15:45:33;16.55;39.38
71396;DHT22;59888;55.814;37.132;2022-09-01T15:47:59;16.14;40.36
71396;DHT22;59888;55.814;37.132;2022-09-01T15:50:26;15.71;41.12
71396;DHT22;59888;55.814;37.132;2022-09-01T15:53:00;15.32;41.79
71396;DHT22;59888;55.814;37.132;2022-09-01T15:55:41;15.03;43.05
71396;DHT22;59888;55.814;37.132;2022-09-01T15:58:09;14.84;42.64
71396;DHT22;59888;55.814;37.132;2022-09-01T16:00:35;14.62;43.80
71396;DHT22;59888;55.814;37.132;2022-09-01T16:03:01;14.43;44.40
71396;DHT22;59888;55.814;37.132;2022-09-01T16:05:32;14.17;45.51
71396;DHT22;59888;55.814;37.132;2022-09-01T16:08:00;13.93;46.96
71396;DHT22;59888;55.814;37.132;2022-09-01T16:10:27;13.74;45.58
71396;DHT22;59888;55.814;37.132;2022-09-01T16:12:54;13.61;48.88
71396;DHT22;59888;55.814;37.132;2022-09-01T16:15:22;13.46;47.11
71396;DHT22;59888;55.814;37.132;2022-09-01T16:21:02;13.14;50.24
71396;DHT22;59888;55.814;37.132;2022-09-01T16:23:38;12.97;48.90
71396;DHT22;59888;55.814;37.132;2022-09-01T16:26:06;12.86;50.37
71396;DHT22;59888;55.814;37.132;2022-09-01T16:28:34;12.84;50.29
71396;DHT22;59888;55.814;37.132;2022-09-01T16:31:13;12.80;49.29
71396;DHT22;59888;55.814;37.132;2022-09-01T16:33:48;12.74;48.53
71396;DHT22;59888;55.814;37.132;2022-09-01T16:39:14;12.59;48.42
71396;DHT22;59888;55.814;37.132;2022-09-01T16:44:56;12.49;48.28
71396;DHT22;59888;55.814;37.132;2022-09-01T16:47:28;12.48;48.17
71396;DHT22;59888;55.814;37.132;2022-09-01T16:50:13;12.42;48.90
71396;DHT22;59888;55.814;37.132;2022-09-01T16:56:08;12.20;51.52
71396;DHT22;59888;55.814;37.132;2022-09-01T17:06:31;11.94;53.07
71396;DHT22;59888;55.814;37.132;2022-09-01T17:09:16;11.92;54.59
71396;DHT22;59888;55.814;37.132;2022-09-01T17:11:51;11.81;53.33
71396;DHT22;59888;55.814;37.132;2022-09-01T17:14:29;11.76;52.33
71396;DHT22;59888;55.814;37.132;2022-09-01T17:17:09;11.70;54.07
71396;DHT22;59888;55.814;37.132;2022-09-01T17:19:38;11.62;52.91
71396;DHT22;59888;55.814;37.132;2022-09-01T17:22:13;11.63;54.31
71396;DHT22;59888;55.814;37.132;2022-09-01T17:24:41;11.61;52.39
71396;DHT22;59888;55.814;37.132;2022-09-01T17:27:24;11.53;53.91
71396;DHT22;59888;55.814;37.132;2022-09-01T17:29:53;11.49;53.89
71396;DHT22;59888;55.814;37.132;2022-09-01T17:57:38;11.28;55.93
71396;DHT22;59888;55.814;37.132;2022-09-01T18:00:23;11.29;54.77
71396;DHT22;59888;55.814;37.132;2022-09-01T18:05:44;11.40;55.36
71396;DHT22;59888;55.814;37.132;2022-09-01T18:08:42;11.56;53.88
71396;DHT22;59888;55.814;37.132;2022-09-01T18:11:18;11.57;53.96
71396;DHT22;59888;55.814;37.132;2022-09-01T18:14:04;11.51;54.81
71396;DHT22;59888;55.814;37.132;2022-09-01T18:17:28;11.48;56.49
71396;DHT22;59888;55.814;37.132;2022-09-01T18:19:53;11.46;55.90
71396;DHT22;59888;55.814;37.132;2022-09-01T18:22:22;11.46;56.90
71396;DHT22;59888;55.814;37.132;2022-09-01T18:24:59;11.40;55.42
71396;DHT22;59888;55.814;37.132;2022-09-01T18:27:33;11.49;54.89
71396;DHT22;59888;55.814;37.132;2022-09-01T18:30:00;11.59;54.74
71396;DHT22;59888;55.814;37.132;2022-09-01T18:32:47;11.73;52.97
71396;DHT22;59888;55.814;37.132;2022-09-01T18:38:27;11.69;56.23
71396;DHT22;59888;55.814;37.132;2022-09-01T18:54:29;11.07;57.99
71396;DHT22;59888;55.814;37.132;2022-09-01T18:57:02;10.99;57.29
71396;DHT22;59888;55.814;37.132;2022-09-01T19:03:02;10.90;57.35
71396;DHT22;59888;55.814;37.132;2022-09-01T19:13:42;10.73;57.55
71396;DHT22;59888;55.814;37.132;2022-09-01T19:16:37;10.67;57.58
71396;DHT22;59888;55.814;37.132;2022-09-01T19:21:51;10.55;57.10
71396;DHT22;59888;55.814;37.132;2022-09-01T19:24:35;10.46;59.10
71396;DHT22;59888;55.814;37.132;2022-09-01T19:27:13;10.42;56.82
71396;DHT22;59888;55.814;37.132;2022-09-01T19:29:52;10.37;57.61
71396;DHT22;59888;55.814;37.132;2022-09-01T19:32:21;10.29;58.85
71396;DHT22;59888;55.814;37.132;2022-09-01T19:34:56;10.27;59.66
71396;DHT22;59888;55.814;37.132;2022-09-01T19:37:22;10.23;56.81
71396;DHT22;59888;55.814;37.132;2022-09-01T19:39:49;10.22;56.85
71396;DHT22;59888;55.814;37.132;2022-09-01T19:47:55;10.16;60.43
71396;DHT22;59888;55.814;37.132;2022-09-01T19:55:55;10.20;56.97
71396;DHT22;59888;55.814;37.132;2022-09-01T20:01:03;10.22;57.98
71396;DHT22;59888;55.814;37.132;2022-09-01T20:03:35;10.21;58.57
71396;DHT22;59888;55.814;37.132;2022-09-01T20:08:50;10.13;59.25
71396;DHT22;59888;55.814;37.132;2022-09-01T20:11:35;10.03;61.35
71396;DHT22;59888;55.814;37.132;2022-09-01T20:17:05;9.95;62.02
71396;DHT22;59888;55.814;37.132;2022-09-01T20:22:42;9.89;60.06
71396;DHT22;59888;55.814;37.132;2022-09-01T20:25:15;9.90;60.74
71396;DHT22;59888;55.814;37.132;2022-09-01T20:28:06;9.91;59.63
71396;DHT22;59888;55.814;37.132;2022-09-01T20:31:01;9.91;60.57
71396;DHT22;59888;55.814;37.132;2022-09-01T20:38:56;9.76;60.58
71396;DHT22;59888;55.814;37.132;2022-09-01T20:42:03;9.75;60.90
71396;DHT22;59888;55.814;37.132;2022-09-01T20:45:16;9.75;60.80
71396;DHT22;59888;55.814;37.132;2022-09-01T20:47:33;9.81;59.31
71396;DHT22;59888;55.814;37.132;2022-09-01T20:50:00;9.84;62.17
71396;DHT22;59888;55.814;37.132;2022-09-01T20:55:51;9.86;60.65
71396;DHT22;59888;55.814;37.132;2022-09-01T21:06:54;9.50;60.80
71396;DHT22;59888;55.814;37.132;2022-09-01T21:18:25;9.31;60.32
71396;DHT22;59888;55.814;37.132;2022-09-01T21:23:33;9.17;60.31
71396;DHT22;59888;55.814;37.132;2022-09-01T21:25:59;9.10;60.80
71396;DHT22;59888;55.814;37.132;2022-09-01T21:28:25;9.04;63.13
71396;DHT22;59888;55.814;37.132;2022-09-01T21:30:53;9.03;61.18
71396;DHT22;59888;55.814;37.132;2022-09-01T21:33:29;9.00;60.80
71396;DHT22;59888;55.814;37.132;2022-09-01T21:35:56;8.95;61.67
71396;DHT22;59888;55.814;37.132;2022-09-01T21:38:22;8.90;63.61
71396;DHT22;59888;55.814;37.132;2022-09-01T21:40:49;8.87;62.40
71396;DHT22;59888;55.814;37.132;2022-09-01T21:43:19;8.83;63.45
71396;DHT22;59888;55.814;37.132;2022-09-01T21:45:47;8.78;64.16
71396;DHT22;59888;55.814;37.132;2022-09-01T21:48:14;8.78;61.90
71396;DHT22;59888;55.814;37.132;2022-09-01T21:50:40;8.72;63.76
71396;DHT22;59888;55.814;37.132;2022-09-01T21:53:07;8.76;63.28
71396;DHT22;59888;55.814;37.132;2022-09-01T21:55:34;8.73;64.79
71396;DHT22;59888;55.814;37.132;2022-09-01T21:58:01;8.64;65.56
71396;DHT22;59888;55.814;37.132;2022-09-01T22:00:29;8.65;63.94
71396;DHT22;59888;55.814;37.132;2022-09-01T22:02:55;8.67;63.56
71396;DHT22;59888;55.814;37.132;2022-09-01T22:05:24;8.72;62.78
71396;DHT22;59888;55.814;37.132;2022-09-01T22:07:52;8.77;64.30
71396;DHT22;59888;55.814;37.132;2022-09-01T22:10:20;8.81;63.72
71396;DHT22;59888;55.814;37.132;2022-09-01T22:12:48;8.82;64.46
71396;DHT22;59888;55.814;37.132;2022-09-01T22:15:16;8.86;62.51
71396;DHT22;59888;55.814;37.132;2022-09-01T22:17:43;8.83;65.12
71396;DHT22;59888;55.814;37.132;2022-09-01T22:20:12;8.83;63.56
71396;DHT22;59888;55.814;37.132;2022-09-01T22:22:38;8.88;63.76
71396;DHT22;59888;55.814;37.132;2022-09-01T22:25:17;8.93;64.42
71396;DHT22;59888;55.814;37.132;2022-09-01T22:27:42;8.95;62.95
71396;DHT22;59888;55.814;37.132;2022-09-01T22:30:09;8.95;64.14
71396;DHT22;59888;55.814;37.132;2022-09-01T22:32:35;8.97;65.04
71396;DHT22;59888;55.814;37.132;2022-09-01T22:35:04;9.00;62.93
71396;DHT22;59888;55.814;37.132;2022-09-01T22:37:30;8.94;65.40
71396;DHT22;59888;55.814;37.132;2022-09-01T22:39:56;8.92;66.46
71396;DHT22;59888;55.814;37.132;2022-09-01T22:42:22;8.96;64.77
71396;DHT22;59888;55.814;37.132;2022-09-01T22:44:48;9.01;65.86
71396;DHT22;59888;55.814;37.132;2022-09-01T22:47:14;8.98;65.04
71396;DHT22;59888;55.814;37.132;2022-09-01T22:49:39;9.03;65.43
71396;DHT22;59888;55.814;37.132;2022-09-01T22:52:05;9.06;65.31
71396;DHT22;59888;55.814;37.132;2022-09-01T22:54:31;9.09;65.94
71396;DHT22;59888;55.814;37.132;2022-09-01T22:56:57;9.12;64.20
71396;DHT22;59888;55.814;37.132;2022-09-01T22:59:23;9.16;64.94
71396;DHT22;59888;55.814;37.132;2022-09-01T23:01:49;9.20;63.77
71396;DHT22;59888;55.814;37.132;2022-09-01T23:04:16;9.21;64.80
71396;DHT22;59888;55.814;37.132;2022-09-01T23:06:51;9.29;65.07
71396;DHT22;59888;55.814;37.132;2022-09-01T23:09:19;9.32;64.96
71396;DHT22;59888;55.814;37.132;2022-09-01T23:11:46;9.33;63.61
71396;DHT22;59888;55.814;37.132;2022-09-01T23:14:13;9.39;64.93
71396;DHT22;59888;55.814;37.132;2022-09-01T23:16:38;9.39;64.36
71396;DHT22;59888;55.814;37.132;2022-09-01T23:19:05;9.39;66.00
71396;DHT22;59888;55.814;37.132;2022-09-01T23:21:34;9.34;65.78
71396;DHT22;59888;55.814;37.132;2022-09-01T23:24:00;9.30;65.12
71396;DHT22;59888;55.814;37.132;2022-09-01T23:26:27;9.34;64.32
71396;DHT22;59888;55.814;37.132;2022-09-01T23:28:54;9.36;64.33
71396;DHT22;59888;55.814;37.132;2022-09-01T23:31:24;9.39;65.37
71396;DHT22;59888;55.814;37.132;2022-09-01T23:33:50;9.42;64.14
71396;DHT22;59888;55.814;37.132;2022-09-01T23:36:18;9.42;64.44
71396;DHT22;59888;55.814;37.132;2022-09-01T23:38:46;9.45;63.35
71396;DHT22;59888;55.814;37.132;2022-09-01T23:41:17;9.53;63.27
71396;DHT22;59888;55.814;37.132;2022-09-01T23:43:43;9.55;63.04
71396;DHT22;59888;55.814;37.132;2022-09-01T23:46:23;9.50;64.00
71396;DHT22;59888;55.814;37.132;2022-09-01T23:48:50;9.52;64.39
71396;DHT22;59888;55.814;37.132;2022-09-01T23:51:16;9.52;64.69